createdAt,value
2023-02-23T00:00:52.037Z,101518.50
2023-02-23T00:03:59.323Z,101511.69
2023-02-23T00:07:01.502Z,101520.34
2023-02-23T00:10:03.800Z,101510.53
2023-02-23T00:13:05.783Z,101518.31
2023-02-23T00:16:14.111Z,101523.53
2023-02-23T00:19:16.160Z,101514.75
2023-02-23T00:22:18.622Z,101518.13
2023-02-23T00:25:23.097Z,101517.97
2023-02-23T00:28:25.534Z,101528.97
2023-02-23T00:31:29.654Z,101532.03
2023-02-23T00:34:32.166Z,101525.75
2023-02-23T00:37:34.243Z,101531.31
2023-02-23T00:40:41.040Z,101537.56
2023-02-23T00:43:47.660Z,101534.88
2023-02-23T00:46:52.632Z,101519.16
2023-02-23T00:49:54.943Z,101526.56
2023-02-23T00:52:59.793Z,101536.41
2023-02-23T00:56:07.949Z,101541.97
2023-02-23T00:59:12.305Z,101539.88
2023-02-23T01:02:16.634Z,101546.97
2023-02-23T01:05:18.620Z,101539.16
2023-02-23T01:08:25.297Z,101526.59
2023-02-23T01:11:31.170Z,101551.97
2023-02-23T01:14:34.242Z,101534.50
2023-02-23T01:17:36.289Z,101526.25
2023-02-23T01:20:42.527Z,101529.25
2023-02-23T01:23:46.237Z,101535.66
2023-02-23T01:26:48.370Z,101528.41
2023-02-23T01:29:50.511Z,101540.22
2023-02-23T01:32:52.506Z,101547.13
2023-02-23T01:36:00.963Z,101536.44
2023-02-23T01:39:07.962Z,101543.84
2023-02-23T01:42:14.093Z,101540.22
2023-02-23T01:45:22.647Z,101549.53
2023-02-23T01:48:28.908Z,101548.03
2023-02-23T01:51:34.904Z,101533.06
2023-02-23T01:54:40.348Z,101548.59
2023-02-23T01:57:42.775Z,101536.41
2023-02-23T02:00:56.939Z,101529.34
2023-02-23T02:04:05.667Z,101540.84
2023-02-23T02:07:07.949Z,101539.38
2023-02-23T02:10:13.432Z,101542.53
2023-02-23T02:13:22.022Z,101537.09
2023-02-23T02:16:31.465Z,101551.56
2023-02-23T02:20:32.325Z,101561.75
2023-02-23T02:23:41.981Z,101559.66
2023-02-23T02:27:18.117Z,101554.41
2023-02-23T02:30:39.893Z,101570.63
2023-02-23T02:34:14.466Z,101566.06
2023-02-23T02:37:41.870Z,101569.06
2023-02-23T02:41:05.364Z,101571.94
2023-02-23T02:44:36.395Z,101563.31
2023-02-23T02:47:59.165Z,101595.53
2023-02-23T02:51:04.341Z,101598.75
2023-02-23T02:54:18.302Z,101601.34
2023-02-23T02:57:26.450Z,101597.09
2023-02-23T03:00:55.922Z,101596.22
2023-02-23T03:04:20.916Z,101597.47
2023-02-23T03:08:22.995Z,101619.28
2023-02-23T03:11:54.564Z,101618.44
2023-02-23T03:15:34.766Z,101617.13
2023-02-23T03:19:33.214Z,101632.00
2023-02-23T03:23:01.246Z,101637.81
2023-02-23T03:26:40.432Z,101626.91
2023-02-23T03:30:39.354Z,101646.69
2023-02-23T03:34:27.778Z,101634.09
2023-02-23T03:37:57.786Z,101650.28
2023-02-23T03:41:19.455Z,101639.84
2023-02-23T03:44:51.540Z,101657.13
2023-02-23T03:48:18.423Z,101648.47
2023-02-23T03:51:42.415Z,101655.28
2023-02-23T03:55:12.161Z,101646.25
2023-02-23T03:58:35.385Z,101669.84
2023-02-23T04:01:57.633Z,101674.34
2023-02-23T04:05:24.337Z,101670.41
2023-02-23T04:08:52.869Z,101674.88
2023-02-23T04:12:26.783Z,101674.81
2023-02-23T04:15:39.189Z,101665.88
2023-02-23T04:18:42.731Z,101675.25
2023-02-23T04:21:45.423Z,101678.09
2023-02-23T04:24:47.890Z,101687.03
2023-02-23T04:27:50.880Z,101687.25
2023-02-23T04:30:53.087Z,101690.41
2023-02-23T04:33:55.183Z,101688.50
2023-02-23T04:36:57.237Z,101685.44
2023-02-23T04:39:59.384Z,101700.97
2023-02-23T04:43:01.449Z,101698.78
2023-02-23T04:46:03.535Z,101701.06
2023-02-23T04:49:07.998Z,101695.34
2023-02-23T04:52:10.305Z,101702.22
2023-02-23T04:55:21.695Z,101690.63
2023-02-23T04:58:24.021Z,101705.75
2023-02-23T05:01:27.291Z,101701.38
2023-02-23T05:04:29.926Z,101717.66
2023-02-23T05:07:32.202Z,101709.22
2023-02-23T05:10:35.671Z,101721.22
2023-02-23T05:13:38.737Z,101724.91
2023-02-23T05:16:40.826Z,101726.44
2023-02-23T05:19:42.771Z,101729.16
2023-02-23T05:22:45.278Z,101734.34
2023-02-23T05:25:47.714Z,101725.38
2023-02-23T05:28:50.271Z,101730.31
2023-02-23T05:31:52.475Z,101732.94
2023-02-23T05:34:54.796Z,101741.53
2023-02-23T05:37:56.815Z,101741.94
2023-02-23T05:40:58.825Z,101734.53
2023-02-23T05:44:02.834Z,101758.94
2023-02-23T05:47:05.820Z,101745.13
2023-02-23T05:50:11.588Z,101749.84
2023-02-23T05:53:13.819Z,101748.16
2023-02-23T05:56:23.512Z,101759.97
2023-02-23T05:59:25.550Z,101766.16
2023-02-23T06:02:27.557Z,101767.09
2023-02-23T06:05:30.113Z,101770.53
2023-02-23T06:08:32.625Z,101776.69
2023-02-23T06:11:35.694Z,101789.72
2023-02-23T06:14:37.733Z,101795.03
2023-02-23T06:17:39.785Z,101793.50
2023-02-23T06:20:41.735Z,101799.84
2023-02-23T06:23:43.802Z,101812.66
2023-02-23T06:26:46.497Z,101811.75
2023-02-23T06:29:48.518Z,101806.09
2023-02-23T06:32:52.482Z,101804.75
2023-02-23T06:35:56.608Z,101807.53
2023-02-23T06:38:59.586Z,101806.72
2023-02-23T06:42:01.599Z,101799.34
2023-02-23T06:45:05.076Z,101817.06
2023-02-23T06:48:07.951Z,101822.38
2023-02-23T06:51:10.197Z,101822.78
2023-02-23T06:54:12.112Z,101841.28
2023-02-23T06:57:14.433Z,101827.50
2023-02-23T07:00:17.912Z,101805.53
2023-02-23T07:03:20.061Z,101821.13
2023-02-23T07:06:22.063Z,101827.00
2023-02-23T07:09:24.280Z,101815.16
2023-02-23T07:12:26.593Z,101821.59
2023-02-23T07:15:29.221Z,101834.63
2023-02-23T07:18:31.301Z,101827.50
2023-02-23T07:21:33.818Z,101810.81
2023-02-23T07:24:35.919Z,101829.72
2023-02-23T07:27:38.345Z,101836.41
2023-02-23T07:30:40.911Z,101825.81
2023-02-23T07:33:43.364Z,101834.78
2023-02-23T07:36:46.668Z,101839.13
2023-02-23T07:39:48.767Z,101837.59
2023-02-23T07:42:51.334Z,101830.75
2023-02-23T07:45:53.862Z,101824.25
2023-02-23T07:48:56.091Z,101840.06
2023-02-23T07:51:58.669Z,101840.50
2023-02-23T07:55:01.914Z,101852.28
2023-02-23T07:58:06.280Z,101861.31
2023-02-23T08:01:10.057Z,101848.66
2023-02-23T08:04:12.400Z,101852.72
2023-02-23T08:07:14.489Z,101857.00
2023-02-23T08:10:16.646Z,101867.13
2023-02-23T08:13:18.940Z,101844.03
2023-02-23T08:16:21.597Z,101866.25
2023-02-23T08:19:25.146Z,101863.28
2023-02-23T08:22:37.883Z,101877.47
2023-02-23T08:25:46.594Z,101885.50
2023-02-23T08:28:48.559Z,101873.28
2023-02-23T08:31:53.908Z,101881.69
2023-02-23T08:34:58.260Z,101886.97
2023-02-23T08:38:00.918Z,101890.09
2023-02-23T08:41:06.072Z,101892.34
2023-02-23T08:44:08.583Z,101894.50
2023-02-23T08:47:11.913Z,101898.06
2023-02-23T08:50:16.921Z,101895.28
2023-02-23T08:53:25.744Z,101896.69
2023-02-23T08:56:36.420Z,101913.16
2023-02-23T08:59:47.891Z,101895.72
2023-02-23T09:02:52.419Z,101910.16
2023-02-23T09:05:55.258Z,101911.69
2023-02-23T09:08:57.597Z,101921.22
2023-02-23T09:12:00.617Z,101915.25
2023-02-23T09:18:19.300Z,101915.75
2023-02-23T09:21:25.586Z,101910.97
2023-02-23T09:24:36.524Z,101916.59
2023-02-23T09:31:17.271Z,101912.34
2023-02-23T09:34:20.209Z,101922.66
2023-02-23T09:37:22.379Z,101927.72
2023-02-23T09:40:28.336Z,101930.47
2023-02-23T09:43:45.230Z,101930.75
2023-02-23T09:46:53.095Z,101929.56
2023-02-23T09:50:00.417Z,101934.09
2023-02-23T09:53:40.774Z,101927.81
2023-02-23T09:57:22.521Z,101914.88
2023-02-23T10:00:28.081Z,101932.31
2023-02-23T10:03:40.338Z,101921.78
2023-02-23T10:06:49.690Z,101912.59
2023-02-23T10:13:57.596Z,101914.09
2023-02-23T10:17:56.701Z,101911.56
2023-02-23T10:21:12.345Z,101910.56
2023-02-23T10:24:40.910Z,101910.19
2023-02-23T10:27:49.956Z,101909.78
2023-02-23T10:30:56.943Z,101921.00
2023-02-23T10:34:06.157Z,101888.44
2023-02-23T10:37:13.058Z,101917.25
2023-02-23T10:40:23.256Z,101922.69
2023-02-23T10:43:25.811Z,101914.88
2023-02-23T10:46:40.740Z,101908.41
2023-02-23T10:49:48.516Z,101905.69
2023-02-23T10:52:57.005Z,101909.44
2023-02-23T10:56:06.935Z,101909.63
2023-02-23T10:59:20.751Z,101909.16
2023-02-23T11:02:27.573Z,101892.00
2023-02-23T11:09:43.335Z,101899.31
2023-02-23T11:12:53.659Z,101898.44
2023-02-23T11:17:00.558Z,101892.19
2023-02-23T11:20:20.527Z,101896.91
2023-02-23T11:23:43.663Z,101874.97
2023-02-23T11:26:48.782Z,101875.34
2023-02-23T11:29:54.253Z,101890.59
2023-02-23T11:33:11.100Z,101875.63
2023-02-23T11:36:16.679Z,101881.56
2023-02-23T11:39:22.978Z,101884.91
2023-02-23T11:42:28.567Z,101878.59
2023-02-23T11:45:34.624Z,101874.31
2023-02-23T11:48:55.020Z,101881.03
2023-02-23T11:51:59.595Z,101873.06
2023-02-23T11:55:16.007Z,101879.81
2023-02-23T11:58:28.137Z,101884.22
2023-02-23T12:01:41.839Z,101884.88
2023-02-23T12:04:48.162Z,101890.16
2023-02-23T12:08:02.806Z,101876.19
2023-02-23T12:11:15.277Z,101873.28
2023-02-23T12:14:56.084Z,101881.53
2023-02-23T12:18:05.513Z,101885.91
2023-02-23T12:21:35.037Z,101891.44
2023-02-23T12:24:45.541Z,101892.16
2023-02-23T12:28:18.089Z,101882.22
2023-02-23T12:31:43.261Z,101871.25
2023-02-23T12:35:16.186Z,101879.19
2023-02-23T12:38:38.535Z,101873.56
2023-02-23T12:42:04.414Z,101877.47
2023-02-23T12:45:17.521Z,101875.44
2023-02-23T12:48:33.613Z,101878.59
2023-02-23T12:51:41.316Z,101876.41
2023-02-23T12:54:49.253Z,101875.28
2023-02-23T12:58:02.030Z,101878.00
2023-02-23T13:01:07.193Z,101877.28
2023-02-23T13:04:34.690Z,101882.16
2023-02-23T13:08:13.692Z,101873.91
2023-02-23T13:11:33.319Z,101881.16
2023-02-23T13:14:47.974Z,101875.75
2023-02-23T13:18:04.918Z,101875.13
2023-02-23T13:21:42.584Z,101869.03
2023-02-23T13:24:49.627Z,101868.03
2023-02-23T13:27:55.480Z,101864.09
2023-02-23T13:30:58.207Z,101863.88
2023-02-23T13:34:04.724Z,101861.06
2023-02-23T13:37:08.658Z,101877.09
2023-02-23T13:40:19.541Z,101862.09
2023-02-23T13:43:24.243Z,101867.41
2023-02-23T13:46:47.823Z,101860.38
2023-02-23T13:50:22.805Z,101863.56
2023-02-23T13:54:00.119Z,101861.06
2023-02-23T13:57:08.812Z,101853.66
2023-02-23T14:00:30.958Z,101845.19
2023-02-23T14:03:45.420Z,101857.47
2023-02-23T14:07:16.937Z,101836.84
2023-02-23T14:10:23.917Z,101848.50
2023-02-23T14:13:29.013Z,101846.47
2023-02-23T14:16:31.634Z,101842.69
2023-02-23T14:19:45.314Z,101848.50
2023-02-23T14:23:16.006Z,101842.56
2023-02-23T14:26:42.227Z,101845.94
2023-02-23T14:30:10.407Z,101844.84
2023-02-23T14:33:36.636Z,101839.59
2023-02-23T14:36:44.443Z,101841.84
2023-02-23T14:39:49.990Z,101836.97
2023-02-23T14:42:57.711Z,101836.06
2023-02-23T14:46:06.384Z,101823.56
2023-02-23T14:49:12.700Z,101830.19
2023-02-23T14:52:22.317Z,101820.47
2023-02-23T14:55:29.329Z,101822.16
2023-02-23T14:58:35.359Z,101813.97
2023-02-23T15:01:39.685Z,101828.25
2023-02-23T15:04:42.402Z,101830.59
2023-02-23T15:07:45.851Z,101823.47
2023-02-23T15:10:51.128Z,101828.34
2023-02-23T15:13:55.072Z,101827.72
2023-02-23T15:16:57.307Z,101824.00
2023-02-23T15:20:15.763Z,101826.88
2023-02-23T15:23:19.618Z,101823.16
2023-02-23T15:26:35.723Z,101834.69
2023-02-23T15:29:41.606Z,101824.78
2023-02-23T15:32:43.787Z,101808.88
2023-02-23T15:35:54.495Z,101815.13
2023-02-23T15:38:58.835Z,101829.19
2023-02-23T15:42:02.555Z,101819.56
2023-02-23T15:45:20.134Z,101807.34
2023-02-23T15:48:36.513Z,101817.81
2023-02-23T15:51:49.009Z,101799.03
2023-02-23T15:55:06.651Z,101812.91
2023-02-23T15:58:31.539Z,101817.47
2023-02-23T16:01:34.740Z,101815.59
2023-02-23T16:04:54.117Z,101812.34
2023-02-23T16:08:05.605Z,101819.31
2023-02-23T16:11:15.293Z,101820.94
2023-02-23T16:14:20.200Z,101818.28
2023-02-23T16:17:27.549Z,101813.19
2023-02-23T16:20:35.610Z,101820.22
2023-02-23T16:23:47.907Z,101820.22
2023-02-23T16:26:58.214Z,101811.97
2023-02-23T16:30:34.525Z,101807.97
2023-02-23T16:33:55.019Z,101814.03
2023-02-23T16:37:03.626Z,101814.03
2023-02-23T16:40:05.702Z,101810.78
2023-02-23T16:43:10.445Z,101787.59
2023-02-23T16:46:26.226Z,101798.41
2023-02-23T16:49:35.887Z,101789.88
2023-02-23T16:52:47.580Z,101797.00
2023-02-23T16:56:02.772Z,101794.28
2023-02-23T16:59:08.044Z,101786.22
2023-02-23T17:02:13.912Z,101789.78
2023-02-23T17:05:19.003Z,101779.81
2023-02-23T17:08:36.738Z,101776.44
2023-02-23T17:11:49.917Z,101776.84
2023-02-23T17:14:52.794Z,101775.16
2023-02-23T17:18:04.699Z,101765.16
2023-02-23T17:21:23.068Z,101759.56
2023-02-23T17:24:26.856Z,101771.44
2023-02-23T17:27:28.860Z,101761.09
2023-02-23T17:30:32.022Z,101762.28
2023-02-23T17:33:36.589Z,101765.16
2023-02-23T17:36:38.857Z,101749.25
2023-02-23T17:39:42.228Z,101754.34
2023-02-23T17:42:45.151Z,101757.41
2023-02-23T17:45:48.233Z,101726.06
2023-02-23T17:48:55.214Z,101756.22
2023-02-23T17:51:58.335Z,101747.25
2023-02-23T17:55:02.822Z,101740.28
2023-02-23T17:58:04.900Z,101752.69
2023-02-23T18:01:07.708Z,101744.63
2023-02-23T18:04:09.880Z,101743.28
2023-02-23T18:07:13.023Z,101740.06
2023-02-23T18:10:17.308Z,101745.28
2023-02-23T18:13:20.173Z,101738.88
2023-02-23T18:16:25.373Z,101726.84
2023-02-23T18:19:29.123Z,101721.94
2023-02-23T18:22:37.037Z,101717.81
2023-02-23T18:26:04.370Z,101726.44
2023-02-23T18:29:20.190Z,101730.50
2023-02-23T18:32:24.922Z,101731.16
2023-02-23T18:35:28.194Z,101729.16
2023-02-23T18:38:30.157Z,101732.56
2023-02-23T18:41:44.820Z,101728.81
2023-02-23T18:44:46.947Z,101719.41
2023-02-23T18:47:51.752Z,101710.78
2023-02-23T18:50:59.427Z,101715.16
2023-02-23T18:54:15.814Z,101705.81
2023-02-23T18:58:46.111Z,101716.47
2023-02-23T19:02:00.228Z,101710.84
2023-02-23T19:05:06.791Z,101718.31
2023-02-23T19:08:13.943Z,101712.72
2023-02-23T19:11:16.005Z,101715.97
2023-02-23T19:14:40.970Z,101704.78
2023-02-23T19:17:46.493Z,101721.38
2023-02-23T19:20:52.461Z,101727.16
2023-02-23T19:25:22.691Z,101724.25
2023-02-23T19:29:07.129Z,101720.84
2023-02-23T19:32:23.387Z,101708.78
2023-02-23T19:35:34.648Z,101718.41
2023-02-23T19:39:11.153Z,101712.31
2023-02-23T19:42:43.882Z,101715.56
2023-02-23T19:45:49.816Z,101708.44
2023-02-23T19:49:10.338Z,101698.56
2023-02-23T19:52:12.442Z,101707.06
2023-02-23T19:55:16.548Z,101715.16
2023-02-23T19:58:18.687Z,101696.78
2023-02-23T20:01:23.611Z,101684.59
2023-02-23T20:04:29.724Z,101695.00
2023-02-23T20:07:34.468Z,101685.31
2023-02-23T20:10:39.087Z,101679.97
2023-02-23T20:13:41.641Z,101680.22
2023-02-23T20:16:43.990Z,101670.47
2023-02-23T20:19:46.074Z,101665.22
2023-02-23T20:22:52.985Z,101660.09
2023-02-23T20:25:58.194Z,101657.63
2023-02-23T20:29:01.489Z,101666.59
2023-02-23T20:32:04.766Z,101657.78
2023-02-23T20:35:08.960Z,101652.69
2023-02-23T20:38:11.689Z,101648.78
2023-02-23T20:41:13.708Z,101658.69
2023-02-23T20:44:16.278Z,101660.13
2023-02-23T20:47:19.304Z,101641.41
2023-02-23T20:50:25.658Z,101652.88
2023-02-23T20:53:28.878Z,101655.63
2023-02-23T20:56:32.283Z,101653.91
2023-02-23T20:59:40.600Z,101630.09
2023-02-23T21:02:42.751Z,101635.94
2023-02-23T21:05:44.837Z,101626.63
2023-02-23T21:08:51.284Z,101619.00
2023-02-23T21:11:53.481Z,101620.63
2023-02-23T21:14:56.591Z,101615.88
2023-02-23T21:17:59.036Z,101615.31
2023-02-23T21:21:10.159Z,101602.97
2023-02-23T21:24:15.054Z,101616.84
2023-02-23T21:27:19.896Z,101608.38
2023-02-23T21:30:24.197Z,101606.44
2023-02-23T21:33:26.323Z,101577.19
2023-02-23T21:36:28.309Z,101591.56
2023-02-23T21:39:31.049Z,101602.31
2023-02-23T21:42:33.200Z,101573.47
2023-02-23T21:45:35.676Z,101582.59
2023-02-23T21:48:37.771Z,101583.13
2023-02-23T21:51:39.851Z,101580.56
2023-02-23T21:54:46.880Z,101584.13
2023-02-23T21:57:48.978Z,101576.75
2023-02-23T22:00:52.711Z,101563.25
2023-02-23T22:03:56.858Z,101563.75
2023-02-23T22:06:59.468Z,101547.88
2023-02-23T22:10:01.651Z,101542.34
2023-02-23T22:13:03.704Z,101558.28
2023-02-23T22:16:07.102Z,101535.97
2023-02-23T22:19:12.348Z,101533.44
2023-02-23T22:22:15.401Z,101538.75
2023-02-23T22:25:20.543Z,101525.56
2023-02-23T22:28:24.014Z,101524.50
2023-02-23T22:31:26.142Z,101518.31
2023-02-23T22:34:28.613Z,101519.44
2023-02-23T22:37:31.725Z,101508.56
2023-02-23T22:40:42.363Z,101508.03
2023-02-23T22:43:47.111Z,101512.97
2023-02-23T22:46:49.545Z,101494.78
2023-02-23T22:49:51.687Z,101493.81
2023-02-23T22:52:53.819Z,101491.50
2023-02-23T22:55:56.806Z,101481.38
2023-02-23T22:59:06.241Z,101479.56
2023-02-23T23:02:08.323Z,101465.44
2023-02-23T23:05:12.840Z,101460.84
2023-02-23T23:08:15.576Z,101467.09
2023-02-23T23:11:21.552Z,101446.50
2023-02-23T23:14:24.128Z,101451.34
2023-02-23T23:17:26.156Z,101444.31
2023-02-23T23:20:29.254Z,101447.50
2023-02-23T23:23:34.860Z,101439.69
2023-02-23T23:26:39.904Z,101435.88
2023-02-23T23:29:46.782Z,101424.13
2023-02-23T23:32:49.793Z,101435.72
2023-02-23T23:35:54.305Z,101423.88
2023-02-23T23:38:57.498Z,101433.03
2023-02-23T23:42:01.996Z,101439.25
2023-02-23T23:45:07.084Z,101407.81
2023-02-23T23:48:10.366Z,101422.22
2023-02-23T23:51:12.901Z,101408.25
2023-02-23T23:54:19.188Z,101412.47
2023-02-23T23:57:24.287Z,101401.34
